Nearby METAR Reports

 

KLOM - Philly Wings F, Pennsylvania, USA
Distance from station: SW 6mi, 10km
Updated: Mon, 27-Apr-2015 1:15am EDT
Clear
Clear
 Wind from calm
Wind: Calm
Temperature: 43°F , 6°C
Dew Point: 32°F , 0°C
Humidity: 66%
Barometer: 29.73 inHg , 1006.8 hPa
Clouds: Clear
Visibility: 10 miles , 16 km
2015/04/27 05:15 KLOM 270515Z AUTO 00000KT 10SM CLR 06/00 A2973 RMK AO1
KDYL - Doylestown, Pennsylvania, USA
Distance from station: NNE 10mi, 17km
Updated: Mon, 27-Apr-2015 12:54am EDT
Clear
Clear
 Wind from calm
Wind: Calm
Temperature: 43°F , 6°C
Barometer: 29.72 inHg , 1006.4 hPa
Clouds: Clear
Visibility: 10 miles , 16 km
2015/04/27 04:54 KDYL 270454Z AUTO 00000KT 10SM CLR 06/ A2972 RMK AO2 SLP067 T0061 401610044 $
KPNE - Philadelphia/Ne, Pennsylvania, USA
Distance from station: SE 11mi, 18km
Updated: Mon, 27-Apr-2015 12:54am EDT
Clear
Clear
 Wind from WNW
Wind: WNW 5 mph , 7 km/h
Temperature: 50°F , 10°C
Wind Chill: 48°F , 9°C
Dew Point: 25°F , -4°C
Humidity: 37%
Barometer: 29.74 inHg , 1007.1 hPa
Clouds: Clear
Visibility: 10 miles , 16 km
2015/04/27 04:54 KPNE 270454Z AUTO 29004KT 10SM CLR 10/M04 A2974 RMK AO2 SLP071 T01001039 401780067 TSNO $
 
KPTW - Pottstown, Pennsylvania, USA
Distance from station: W 20mi, 32km
Updated: Mon, 27-Apr-2015 12:54am EDT
Clear
Clear
 Wind from calm
Wind: Calm
Temperature: 39°F , 4°C
Dew Point: 30°F , -1°C
Humidity: 70%
Barometer: 29.75 inHg , 1007.5 hPa
Clouds: Clear
Visibility: 10 miles , 16 km
2015/04/27 04:54 KPTW 270454Z AUTO 00000KT 10SM CLR 04/M01 A2975 RMK AO2 SLP074 T00441006 401610028 $
KTTN - Trenton, New Jersey, USA
Distance from station: ENE 20mi, 32km
Updated: Mon, 27-Apr-2015 12:53am EDT
Clear
Clear
 Wind from W
Wind: W 5 mph , 7 km/h
Temperature: 46°F , 8°C
Wind Chill: 44°F , 7°C
Dew Point: 27°F , -3°C
Humidity: 46%
Barometer: 29.71 inHg , 1006.1 hPa
Clouds: Clear
Visibility: 10 miles , 16 km
2015/04/27 04:53 KTTN 270453Z AUTO 28004KT 10SM CLR 08/M03 A2971 RMK AO2 SLP055 T00781028 401610056
KUKT - Quakertown Arp, Pennsylvania, USA
Distance from station: NNW 20mi, 32km
Updated: Mon, 27-Apr-2015 1:20am EDT
Clear
Clear
 Wind from NNW
Wind: NNW 5 mph , 7 km/h
Temperature: 45°F , 7°C
Wind Chill: 42°F , 6°C
Dew Point: 28°F , -2°C
Humidity: 53%
Barometer: 29.74 inHg , 1007.1 hPa
Clouds: Clear
Visibility: 10 miles , 16 km
2015/04/27 05:20 KUKT 270520Z AUTO 33004KT 10SM CLR 07/M02 A2974 RMK AO1
 
KPHL - Philadelphia, Pennsylvania, USA
Distance from station: S 22mi, 36km
Updated: Mon, 27-Apr-2015 12:54am EDT
Few Clouds
Few Clouds
 Wind from NW
Wind: NW 5 mph , 7 km/h
Temperature: 54°F , 12°C
Dew Point: 27°F , -3°C
Humidity: 35%
Barometer: 29.75 inHg , 1007.5 hPa
Clouds: Few Clouds
Visibility: 10 miles , 16 km
Cloud details: Few Clouds 8500 ft
2015/04/27 04:54 KPHL 270454Z 31004KT 10SM FEW085 12/M03 A2975 RMK AO2 SLP072 T01171033 401780072 $
KVAY - Mount Holly, New Jersey, USA
Distance from station: SE 25mi, 41km
Updated: Mon, 27-Apr-2015 12:54am EDT
Clear
Clear
 Wind from S
Wind: S 3 mph , 6 km/h
Temperature: 41°F , 5°C
Dew Point: 32°F , 0°C
Humidity: 70%
Barometer: 29.73 inHg , 1006.8 hPa
Clouds: Clear
Visibility: 10 miles , 16 km
2015/04/27 04:54 KVAY 270454Z AUTO 18003KT 10SM CLR 05/00 A2973 RMK AO2 SLP066 T00500000 401610028
KXLL - Allentown Queen, Pennsylvania, USA
Distance from station: NNW 31mi, 49km
Updated: Mon, 27-Apr-2015 1:15am EDT
Clear
Clear
 Wind from NW
Wind: NW 3 mph , 6 km/h
Temperature: 45°F , 7°C
Dew Point: 30°F , -1°C
Humidity: 57%
Barometer: 29.75 inHg , 1007.5 hPa
Clouds: Clear
Visibility: 10 miles , 16 km
2015/04/27 05:15 KXLL 270515Z AUTO 32003KT 10SM CLR 07/M01 A2975 RMK AO2
 
KWRI - Wrightst/Mcguire, New Jersey, USA
Distance from station: ESE 34mi, 54km
Updated: Mon, 27-Apr-2015 12:58am EDT
Clear
Clear
 Wind from WSW
Wind: WSW 5 mph , 7 km/h
Temperature: 43°F , 6°C
Wind Chill: 40°F , 4°C
Dew Point: 32°F , 0°C
Humidity: 66%
Barometer: 29.70 inHg , 1005.8 hPa
Clouds: Clear
Visibility: 10 miles , 16 km
2015/04/27 04:58 KWRI 270458Z AUTO 25004KT 10SM CLR 06/00 A2970 RMK AO2 SLP057 T00591004 401650026
KABE - Allentown, Pennsylvania, USA
Distance from station: NNW 35mi, 56km
Updated: Mon, 27-Apr-2015 12:51am EDT
Clear
Clear
 Wind from WNW
Wind: WNW 5 mph , 7 km/h
Temperature: 45°F , 7°C
Wind Chill: 42°F , 6°C
Dew Point: 28°F , -2°C
Humidity: 53%
Barometer: 29.74 inHg , 1007.1 hPa
Clouds: Clear
Visibility: 10 miles , 16 km
2015/04/27 04:51 KABE 270451Z 30004KT 10SM CLR 07/M02 A2974 RMK AO2 SLP071 T00671017 401610017
KMQS - Coatesville, Pennsylvania, USA
Distance from station: WSW 39mi, 63km
Updated: Mon, 27-Apr-2015 1:15am EDT
Clear
Clear
 Wind from NNW
Wind: NNW 6 mph , 9 km/h
Temperature: 43°F , 6°C
Wind Chill: 39°F , 4°C
Dew Point: 28°F , -2°C
Humidity: 57%
Barometer: 29.75 inHg , 1007.5 hPa
Clouds: Clear
Visibility: 10 miles , 16 km
2015/04/27 05:15 KMQS 270515Z AUTO 33005KT 10SM CLR 06/M02 A2975 RMK AO2
 
KSMQ - Somerville, New Jersey, USA
Distance from station: NE 40mi, 64km
Updated: Mon, 27-Apr-2015 12:53am EDT
Clear
Clear
 Wind from calm
Wind: Calm
Temperature: 39°F , 4°C
Dew Point: 28°F , -2°C
Humidity: 65%
Barometer: 29.70 inHg , 1005.8 hPa
Clouds: Clear
Visibility: 10 miles , 16 km
2015/04/27 04:53 KSMQ 270453Z AUTO 00000KT 10SM CLR 04/M02 A2970 RMK AO2 SLP057 T00391017 401720006 TSNO
KILG - Wilmington, Delaware, USA
Distance from station: SSW 42mi, 68km
Updated: Mon, 27-Apr-2015 12:51am EDT
Clear
Clear
 Wind from NW
Wind: NW 3 mph , 6 km/h
Temperature: 46°F , 8°C
Dew Point: 36°F , 2°C
Humidity: 66%
Barometer: 29.75 inHg , 1007.5 hPa
Clouds: Clear
Visibility: 10 miles , 16 km
2015/04/27 04:51 KILG 270451Z AUTO 32003KT 10SM CLR 08/02 A2975 RMK AO2 SLP074 T00780022 401720050
KRDG - Reading, Pennsylvania, USA
Distance from station: WNW 43mi, 70km
Updated: Mon, 27-Apr-2015 12:54am EDT
Clear
Clear
 Wind from calm
Wind: Calm
Temperature: 43°F , 6°C
Dew Point: 28°F , -2°C
Humidity: 57%
Barometer: 29.74 inHg , 1007.1 hPa
Clouds: Clear
Visibility: 10 miles , 16 km
2015/04/27 04:54 KRDG 270454Z 00000KT 10SM CLR 06/M02 A2974 RMK AO2 SLP077 T00611017 401720033
 
KNEL - Lakehurst Nas, New Jersey, USA
Distance from station: ESE 46mi, 74km
Updated: Mon, 06-Oct-2014 4:00pm EDT
NOT Current
Clear
Clear
 Wind from S
Wind: S 15 mph , 24 km/h, Gust: 23 mph , 37 km/h
Temperature: 70°F , 21°C
Dew Point: 46°F , 8°C
Humidity: 43%
Barometer: 30.01 inHg , 1016.3 hPa
Clouds: Clear
Visibility: 10 miles , 16 km
2014/10/06 20:00 KNEL 062000Z AUTO 17013G20KT 10SM CLR 21/08 A3001 RMK AO2 SLP163 T02110083 $
KMJX - Toms River, New Jersey, USA
Distance from station: ESE 50mi, 80km
Updated: Mon, 27-Apr-2015 1:15am EDT
Clear
Clear
 Wind from calm
Wind: Calm
Temperature: 37°F , 3°C
Dew Point: 30°F , -1°C
Humidity: 75%
Barometer: 29.71 inHg , 1006.1 hPa
Clouds: Clear
Visibility: 10 miles , 16 km
2015/04/27 05:15 KMJX 270515Z AUTO 00000KT 10SM CLR 03/M01 A2971 RMK AO1